Time;durP1;ratioP1;P1;durP2;ratioP2;P2;SDS_P1;SDS_P2;PMS_P1;PMS_P2;Temp;Humidity;BMP_temperature;BMP_pressure;BME280_temperature;BME280_humidity;BME280_pressure;Samples;Min_cycle;Max_cycle;Signal;HPM_P1;HPM_P2
2022/05/24 00:01:47;;;;;;;1999.90;999.90;;;;;;;;;;5116036;27;20476;-76
2022/05/24 00:04:14;;;;;;;1999.90;999.90;;;;;;;;;;5082239;27;21462;-75
2022/05/24 00:06:42;;;;;;;1999.90;999.90;;;;;;;;;;5098587;27;20534;-76
2022/05/24 00:09:09;;;;;;;1999.90;999.90;;;;;;;;;;5099412;27;20497;-75
2022/05/24 00:11:37;;;;;;;1999.90;999.90;;;;;;;;;;5096029;27;20976;-75
2022/05/24 00:14:06;;;;;;;1999.90;999.90;;;;;;;;;;5117241;27;20483;-75
2022/05/24 00:16:34;;;;;;;1999.90;999.90;;;;;;;;;;5090195;27;20442;-76
2022/05/24 00:19:02;;;;;;;1999.90;999.90;;;;;;;;;;5098357;27;20399;-75
2022/05/24 00:21:29;;;;;;;1999.90;999.90;;;;;;;;;;5096661;27;21385;-75
2022/05/24 00:23:57;;;;;;;1999.90;999.90;;;;;;;;;;5100158;27;21132;-75
2022/05/24 00:26:28;;;;;;;1999.90;999.90;;;;;;;;;;5096170;27;20475;-75
2022/05/24 00:28:56;;;;;;;1999.90;999.90;;;;;;;;;;5098363;27;20395;-75
2022/05/24 00:31:24;;;;;;;1999.90;999.90;;;;;;;;;;5100212;27;21011;-76
2022/05/24 00:33:52;;;;;;;1999.90;999.90;;;;;;;;;;5100063;27;20398;-76
2022/05/24 00:36:22;;;;;;;1999.90;999.90;;;;;;;;;;5115132;27;20461;-76
2022/05/24 00:38:50;;;;;;;1999.90;999.90;;;;;;;;;;5099348;27;20403;-76
2022/05/24 00:41:24;;;;;;;1999.90;999.90;;;;;;;;;;5094248;27;20860;-76
2022/05/24 00:43:54;;;;;;;1999.90;999.90;;;;;;;;;;5096960;27;20488;-76
2022/05/24 00:46:24;;;;;;;1999.90;999.90;;;;;;;;;;5098185;27;20409;-75
2022/05/24 00:48:56;;;;;;;1999.90;999.90;;;;;;;;;;5099287;27;20410;-75
2022/05/24 00:51:26;;;;;;;1999.90;999.90;;;;;;;;;;5097492;27;20457;-76
2022/05/24 00:53:55;;;;;;;1999.90;999.90;;;;;;;;;;5076955;27;20976;-76
2022/05/24 00:56:33;;;;;;;1999.90;999.90;;;;;;;;;;5096799;27;20410;-75
2022/05/24 00:59:03;;;;;;;1999.90;999.90;;;;;;;;;;5091413;27;20495;-76
2022/05/24 01:01:33;;;;;;;1999.90;999.90;;;;;;;;;;5099927;27;20482;-76
2022/05/24 01:04:03;;;;;;;1999.90;999.90;;;;;;;;;;5098090;27;21240;-76
2022/05/24 01:06:30;;;;;;;1999.90;999.90;;;;;;;;;;5099765;27;21154;-76
2022/05/24 01:08:59;;;;;;;1999.90;999.90;;;;;;;;;;5097391;27;20391;-76
2022/05/24 01:11:28;;;;;;;1999.90;999.90;;;;;;;;;;5098777;27;20399;-75
2022/05/24 01:13:56;;;;;;;1999.90;999.90;;;;;;;;;;5098584;27;20504;-77
2022/05/24 01:16:24;;;;;;;1999.90;999.90;;;;;;;;;;5094356;27;20482;-75
2022/05/24 01:18:52;;;;;;;1999.90;999.90;;;;;;;;;;5099423;27;20448;-75
2022/05/24 01:21:21;;;;;;;1999.90;999.90;;;;;;;;;;5098709;27;20395;-74
2022/05/24 01:23:54;;;;;;;1999.90;999.90;;;;;;;;;;5098863;27;20524;-75
2022/05/24 01:26:26;;;;;;;1999.90;999.90;;;;;;;;;;5093938;27;20411;-75
2022/05/24 01:28:57;;;;;;;1999.90;999.90;;;;;;;;;;5098800;27;20433;-75
2022/05/24 01:31:25;;;;;;;1999.90;999.90;;;;;;;;;;5097647;27;20778;-75
2022/05/24 01:36:39;;;;;;;1999.90;999.90;;;;;;;;;;5098961;27;20486;-75
2022/05/24 01:39:09;;;;;;;1999.90;999.90;;;;;;;;;;5097578;27;20426;-74
2022/05/24 01:41:38;;;;;;;1999.90;999.90;;;;;;;;;;5096316;27;20454;-75
2022/05/24 01:44:08;;;;;;;1999.90;999.90;;;;;;;;;;5070774;27;20491;-75
2022/05/24 01:46:37;;;;;;;1999.90;999.90;;;;;;;;;;5096223;27;20526;-75
2022/05/24 01:49:06;;;;;;;1999.90;999.90;;;;;;;;;;5092897;27;20383;-75
2022/05/24 01:51:37;;;;;;;1999.90;999.90;;;;;;;;;;5095072;27;20995;-75
2022/05/24 01:54:06;;;;;;;1999.90;999.90;;;;;;;;;;5095378;27;20487;-75
2022/05/24 01:56:38;;;;;;;1999.90;999.90;;;;;;;;;;5096944;27;20402;-75
2022/05/24 01:59:08;;;;;;;1999.90;999.90;;;;;;;;;;5096114;27;20395;-75
2022/05/24 02:01:39;;;;;;;1999.90;999.90;;;;;;;;;;5092823;27;20430;-75
2022/05/24 02:04:07;;;;;;;1999.90;999.90;;;;;;;;;;5094233;27;20387;-75
2022/05/24 02:06:35;;;;;;;1999.90;999.90;;;;;;;;;;5097515;27;21293;-75
2022/05/24 02:09:03;;;;;;;1999.90;999.90;;;;;;;;;;5098363;27;20928;-75
2022/05/24 02:11:31;;;;;;;1999.90;999.90;;;;;;;;;;5083527;27;20407;-76
2022/05/24 02:14:00;;;;;;;1999.90;999.90;;;;;;;;;;5098728;27;20565;-76
2022/05/24 02:16:31;;;;;;;1999.90;999.90;;;;;;;;;;5095203;27;20436;-75
2022/05/24 02:19:02;;;;;;;1999.90;999.90;;;;;;;;;;5083059;27;20395;-77
2022/05/24 02:21:30;;;;;;;1999.90;999.90;;;;;;;;;;5095870;27;20431;-75
2022/05/24 02:23:58;;;;;;;1999.90;999.90;;;;;;;;;;5079738;27;20481;-75
2022/05/24 02:26:26;;;;;;;1999.90;999.90;;;;;;;;;;5096130;27;20411;-74
2022/05/24 02:28:54;;;;;;;1999.90;999.90;;;;;;;;;;5098946;27;20415;-76
2022/05/24 02:31:23;;;;;;;1999.90;999.90;;;;;;;;;;5103101;27;21296;-77
2022/05/24 02:33:52;;;;;;;1999.90;999.90;;;;;;;;;;5106222;27;21493;-76
2022/05/24 02:36:19;;;;;;;1999.90;999.90;;;;;;;;;;5104470;27;20490;-76
2022/05/24 02:38:47;;;;;;;1999.90;999.90;;;;;;;;;;5105623;27;20395;-76
2022/05/24 02:41:29;;;;;;;1999.90;999.90;;;;;;;;;;5103379;27;20427;-78
2022/05/24 02:43:57;;;;;;;1999.90;999.90;;;;;;;;;;5103826;27;20383;-75
2022/05/24 02:46:25;;;;;;;1999.90;999.90;;;;;;;;;;5101799;27;20423;-75
2022/05/24 02:48:54;;;;;;;1999.90;999.90;;;;;;;;;;5102486;27;20398;-75
2022/05/24 02:51:22;;;;;;;1999.90;999.90;;;;;;;;;;5101008;27;20476;-76
2022/05/24 02:53:49;;;;;;;1999.90;999.90;;;;;;;;;;5097989;27;20996;-77
2022/05/24 02:56:17;;;;;;;1999.90;999.90;;;;;;;;;;5100980;27;20869;-76
2022/05/24 02:58:44;;;;;;;1999.90;999.90;;;;;;;;;;5100511;27;20416;-75
2022/05/24 03:01:14;;;;;;;1999.90;999.90;;;;;;;;;;5100396;27;20784;-76
2022/05/24 03:03:41;;;;;;;1999.90;999.90;;;;;;;;;;5101895;27;20441;-76
2022/05/24 03:06:10;;;;;;;1999.90;999.90;;;;;;;;;;5099715;27;20415;-76
2022/05/24 03:11:23;;;;;;;1999.90;999.90;;;;;;;;;;5095998;27;20873;-76
2022/05/24 03:16:36;;;;;;;1999.90;999.90;;;;;;;;;;5100478;27;20423;-75
2022/05/24 03:19:05;;;;;;;1999.90;999.90;;;;;;;;;;5098813;27;20395;-73
2022/05/24 03:21:33;;;;;;;1999.90;999.90;;;;;;;;;;5099337;27;20407;-77
2022/05/24 03:24:01;;;;;;;1999.90;999.90;;;;;;;;;;5099638;27;20899;-78
2022/05/24 03:26:29;;;;;;;1999.90;999.90;;;;;;;;;;5099977;27;20403;-78
2022/05/24 03:28:58;;;;;;;1999.90;999.90;;;;;;;;;;5099766;27;20560;-70
2022/05/24 03:31:26;;;;;;;1999.90;999.90;;;;;;;;;;5097867;27;20390;-71
2022/05/24 03:33:54;;;;;;;1999.90;999.90;;;;;;;;;;5099181;27;20406;-71
2022/05/24 03:36:28;;;;;;;1999.90;999.90;;;;;;;;;;5098587;27;20873;-71
2022/05/24 03:38:57;;;;;;;1999.90;999.90;;;;;;;;;;5099879;27;21154;-71
2022/05/24 03:41:24;;;;;;;1999.90;999.90;;;;;;;;;;5098462;27;20395;-71
2022/05/24 03:43:52;;;;;;;1999.90;999.90;;;;;;;;;;5096218;27;20830;-71
2022/05/24 03:46:20;;;;;;;1999.90;999.90;;;;;;;;;;5086844;27;20490;-71
2022/05/24 03:48:48;;;;;;;1999.90;999.90;;;;;;;;;;5099504;27;20441;-71
2022/05/24 03:51:17;;;;;;;1999.90;999.90;;;;;;;;;;5097200;27;20935;-71
2022/05/24 03:53:45;;;;;;;1999.90;999.90;;;;;;;;;;5095333;27;20474;-71
2022/05/24 03:56:13;;;;;;;1999.90;999.90;;;;;;;;;;5098243;27;20452;-70
2022/05/24 03:58:41;;;;;;;1999.90;999.90;;;;;;;;;;5100507;27;20448;-71
2022/05/24 04:01:10;;;;;;;1999.90;999.90;;;;;;;;;;5078994;27;20699;-71
2022/05/24 04:03:38;;;;;;;1999.90;999.90;;;;;;;;;;5097537;27;21322;-71
2022/05/24 04:06:06;;;;;;;1999.90;999.90;;;;;;;;;;5090995;27;20407;-72
2022/05/24 04:08:33;;;;;;;1999.90;999.90;;;;;;;;;;5099225;27;20403;-70
2022/05/24 04:11:02;;;;;;;1999.90;999.90;;;;;;;;;;5098393;27;20388;-69
2022/05/24 04:13:31;;;;;;;1999.90;999.90;;;;;;;;;;5097934;27;20930;-71
2022/05/24 04:15:59;;;;;;;1999.90;999.90;;;;;;;;;;5098467;27;20434;-70
2022/05/24 04:18:27;;;;;;;1999.90;999.90;;;;;;;;;;5096891;27;20375;-71
2022/05/24 04:20:55;;;;;;;1999.90;999.90;;;;;;;;;;5097252;27;20455;-73
2022/05/24 04:23:23;;;;;;;1999.90;999.90;;;;;;;;;;5097419;27;20422;-72
2022/05/24 04:25:52;;;;;;;1999.90;999.90;;;;;;;;;;5099354;27;20427;-71
2022/05/24 04:28:19;;;;;;;1999.90;999.90;;;;;;;;;;5096115;27;20618;-72
2022/05/24 04:30:49;;;;;;;1999.90;999.90;;;;;;;;;;5099962;27;20429;-71
2022/05/24 04:33:17;;;;;;;1999.90;999.90;;;;;;;;;;5098258;27;20395;-72
2022/05/24 04:35:46;;;;;;;1999.90;999.90;;;;;;;;;;5099739;27;20410;-71
2022/05/24 04:38:13;;;;;;;1999.90;999.90;;;;;;;;;;5097782;27;20395;-72
2022/05/24 04:43:26;;;;;;;1999.90;999.90;;;;;;;;;;5098171;27;20505;-72
2022/05/24 04:45:56;;;;;;;1999.90;999.90;;;;;;;;;;5098759;27;20475;-70
2022/05/24 04:48:25;;;;;;;1999.90;999.90;;;;;;;;;;5096945;27;21082;-71
2022/05/24 04:50:53;;;;;;;1999.90;999.90;;;;;;;;;;5098100;27;20449;-71
2022/05/24 04:53:21;;;;;;;1999.90;999.90;;;;;;;;;;5098043;27;20906;-72
2022/05/24 04:55:49;;;;;;;1999.90;999.90;;;;;;;;;;5092305;27;20402;-72
2022/05/24 04:58:16;;;;;;;1999.90;999.90;;;;;;;;;;5098849;27;20450;-70
2022/05/24 05:00:44;;;;;;;1999.90;999.90;;;;;;;;;;5097410;27;21659;-70
2022/05/24 05:03:14;;;;;;;1999.90;999.90;;;;;;;;;;5099434;27;20403;-71
2022/05/24 05:05:45;;;;;;;1999.90;999.90;;;;;;;;;;5098298;27;20522;-70
2022/05/24 05:08:12;;;;;;;1999.90;999.90;;;;;;;;;;5096811;27;20391;-71
2022/05/24 05:10:40;;;;;;;1999.90;999.90;;;;;;;;;;5097611;27;20494;-71
2022/05/24 05:13:10;;;;;;;1999.90;999.90;;;;;;;;;;5095633;27;20403;-70
2022/05/24 05:15:38;;;;;;;1999.90;999.90;;;;;;;;;;5096878;27;20458;-71
2022/05/24 05:18:07;;;;;;;1999.90;999.90;;;;;;;;;;5078299;27;20445;-72
2022/05/24 05:20:38;;;;;;;1999.90;999.90;;;;;;;;;;5099910;27;20398;-70
2022/05/24 05:23:06;;;;;;;1999.90;999.90;;;;;;;;;;5096635;27;21621;-73
2022/05/24 05:25:34;;;;;;;1999.90;999.90;;;;;;;;;;5099405;27;20909;-72
2022/05/24 05:28:02;;;;;;;1999.90;999.90;;;;;;;;;;5098561;27;20411;-71
2022/05/24 05:33:15;;;;;;;1999.90;999.90;;;;;;;;;;5098753;27;20387;-72
2022/05/24 05:35:45;;;;;;;1999.90;999.90;;;;;;;;;;5096225;27;20498;-70
2022/05/24 05:38:13;;;;;;;1999.90;999.90;;;;;;;;;;5099485;27;20387;-72
2022/05/24 05:40:41;;;;;;;1999.90;999.90;;;;;;;;;;5097650;27;20996;-72
2022/05/24 05:43:09;;;;;;;1999.90;999.90;;;;;;;;;;5090377;27;20364;-71
2022/05/24 05:45:37;;;;;;;1999.90;999.90;;;;;;;;;;5098296;27;20426;-75
2022/05/24 05:48:05;;;;;;;1999.90;999.90;;;;;;;;;;5095356;27;20375;-73
2022/05/24 05:50:33;;;;;;;1999.90;999.90;;;;;;;;;;5096937;27;20530;-71
2022/05/24 05:53:04;;;;;;;1999.90;999.90;;;;;;;;;;5093255;27;20384;-71
2022/05/24 05:55:31;;;;;;;1999.90;999.90;;;;;;;;;;5096054;27;20963;-72
2022/05/24 05:57:59;;;;;;;1999.90;999.90;;;;;;;;;;5098792;27;20387;-72
2022/05/24 06:00:26;;;;;;;1999.90;999.90;;;;;;;;;;5095339;27;20438;-70
2022/05/24 06:02:54;;;;;;;1999.90;999.90;;;;;;;;;;5095765;27;20400;-72
2022/05/24 06:05:27;;;;;;;1999.90;999.90;;;;;;;;;;5099820;27;20411;-71
2022/05/24 06:07:55;;;;;;;1999.90;999.90;;;;;;;;;;5101339;27;21108;-72
2022/05/24 06:10:24;;;;;;;1999.90;999.90;;;;;;;;;;5101989;27;20417;-70
2022/05/24 06:12:52;;;;;;;1999.90;999.90;;;;;;;;;;5099041;27;20391;-72
2022/05/24 06:15:20;;;;;;;1999.90;999.90;;;;;;;;;;5100408;27;20490;-71
2022/05/24 06:17:49;;;;;;;1999.90;999.90;;;;;;;;;;5095983;27;21254;-71
2022/05/24 06:20:22;;;;;;;1999.90;999.90;;;;;;;;;;5100189;27;20521;-72
2022/05/24 06:22:52;;;;;;;1999.90;999.90;;;;;;;;;;5099281;27;20403;-72
2022/05/24 06:25:20;;;;;;;1999.90;999.90;;;;;;;;;;5101513;27;20455;-72
2022/05/24 06:27:49;;;;;;;1999.90;999.90;;;;;;;;;;5101740;27;21053;-71
2022/05/24 06:30:19;;;;;;;1999.90;999.90;;;;;;;;;;5099754;27;21019;-73
2022/05/24 06:32:46;;;;;;;1999.90;999.90;;;;;;;;;;5099325;27;20423;-72
2022/05/24 06:35:14;;;;;;;1999.90;999.90;;;;;;;;;;5097495;27;20894;-72
2022/05/24 06:37:42;;;;;;;1999.90;999.90;;;;;;;;;;5100993;27;20485;-72
2022/05/24 06:40:11;;;;;;;1999.90;999.90;;;;;;;;;;5100395;27;20910;-71
2022/05/24 06:42:38;;;;;;;1999.90;999.90;;;;;;;;;;5097781;27;20470;-72
2022/05/24 06:45:09;;;;;;;1999.90;999.90;;;;;;;;;;5096833;27;21192;-70
2022/05/24 06:47:37;;;;;;;1999.90;999.90;;;;;;;;;;5100714;27;20435;-72
2022/05/24 06:50:05;;;;;;;1999.90;999.90;;;;;;;;;;5101282;27;20474;-71
2022/05/24 06:52:33;;;;;;;1999.90;999.90;;;;;;;;;;5099610;27;20407;-71
2022/05/24 06:55:00;;;;;;;1999.90;999.90;;;;;;;;;;5101047;27;20400;-71
2022/05/24 06:57:28;;;;;;;1999.90;999.90;;;;;;;;;;5097924;27;20391;-71
2022/05/24 07:02:48;;;;;;;1999.90;999.90;;;;;;;;;;5078415;27;20500;-71
2022/05/24 07:05:21;;;;;;;1999.90;999.90;;;;;;;;;;5099252;27;20402;-70
2022/05/24 07:07:49;;;;;;;1999.90;999.90;;;;;;;;;;5098477;27;20396;-73
2022/05/24 07:10:21;;;;;;;1999.90;999.90;;;;;;;;;;5099869;27;21459;-73
2022/05/24 07:12:57;;;;;;;1999.90;999.90;;;;;;;;;;5100334;27;20408;-72
2022/05/24 07:15:25;;;;;;;1999.90;999.90;;;;;;;;;;5098193;27;20400;-72
2022/05/24 07:17:54;;;;;;;1999.90;999.90;;;;;;;;;;5097439;27;20384;-70
2022/05/24 07:20:21;;;;;;;1999.90;999.90;;;;;;;;;;5100188;27;20395;-71
2022/05/24 07:22:49;;;;;;;1999.90;999.90;;;;;;;;;;5099176;27;20419;-72
2022/05/24 07:25:17;;;;;;;1999.90;999.90;;;;;;;;;;5083160;27;20407;-70
2022/05/24 07:27:45;;;;;;;1999.90;999.90;;;;;;;;;;5101023;27;20391;-73
2022/05/24 07:30:12;;;;;;;1999.90;999.90;;;;;;;;;;5098307;27;20395;-70
2022/05/24 07:32:40;;;;;;;1999.90;999.90;;;;;;;;;;5081395;28;20391;-73
2022/05/24 07:35:09;;;;;;;1999.90;999.90;;;;;;;;;;5096425;27;20963;-73
2022/05/24 07:37:37;;;;;;;1999.90;999.90;;;;;;;;;;5099477;27;21084;-73
2022/05/24 07:45:51;;;;;;;1999.90;999.90;;;;;;;;;;5084801;27;20499;-72
2022/05/24 07:48:19;;;;;;;1999.90;999.90;;;;;;;;;;5098668;27;20380;-72
2022/05/24 07:50:50;;;;;;;1999.90;999.90;;;;;;;;;;5098291;27;20414;-71
2022/05/24 07:53:18;;;;;;;1999.90;999.90;;;;;;;;;;5099902;27;20390;-73
2022/05/24 07:55:46;;;;;;;1999.90;999.90;;;;;;;;;;5100828;27;20516;-71
2022/05/24 07:58:14;;;;;;;1999.90;999.90;;;;;;;;;;5082802;27;21303;-73
2022/05/24 08:00:41;;;;;;;1999.90;999.90;;;;;;;;;;5099331;27;20945;-72
2022/05/24 08:03:09;;;;;;;1999.90;999.90;;;;;;;;;;5098898;27;20391;-72
2022/05/24 08:05:37;;;;;;;1999.90;999.90;;;;;;;;;;5094996;27;20418;-73
2022/05/24 08:08:08;;;;;;;1999.90;999.90;;;;;;;;;;5092828;27;20383;-71
2022/05/24 08:10:37;;;;;;;1999.90;999.90;;;;;;;;;;5101043;27;20419;-73
2022/05/24 08:13:05;;;;;;;1999.90;999.90;;;;;;;;;;5098552;27;20974;-72
2022/05/24 08:15:33;;;;;;;1999.90;999.90;;;;;;;;;;5097752;27;21168;-71
2022/05/24 08:18:01;;;;;;;1999.90;999.90;;;;;;;;;;5099091;27;20387;-72
2022/05/24 08:20:29;;;;;;;1999.90;999.90;;;;;;;;;;5097161;27;20486;-72
2022/05/24 08:22:57;;;;;;;1999.90;999.90;;;;;;;;;;5097001;27;20399;-74
2022/05/24 08:25:27;;;;;;;1999.90;999.90;;;;;;;;;;5080043;27;20403;-72
2022/05/24 08:27:55;;;;;;;1999.90;999.90;;;;;;;;;;5099312;27;20419;-74
2022/05/24 08:30:23;;;;;;;1999.90;999.90;;;;;;;;;;5098995;27;20411;-71
2022/05/24 08:32:50;;;;;;;1999.90;999.90;;;;;;;;;;5100094;27;20490;-72
2022/05/24 08:35:19;;;;;;;1999.90;999.90;;;;;;;;;;5092100;27;20443;-72
2022/05/24 08:37:47;;;;;;;1999.90;999.90;;;;;;;;;;5099690;27;21210;-71
2022/05/24 08:40:16;;;;;;;1999.90;999.90;;;;;;;;;;5097503;27;20534;-73
2022/05/24 08:42:59;;;;;;;1999.90;999.90;;;;;;;;;;5096539;27;20404;-71
2022/05/24 08:48:26;;;;;;;1999.90;999.90;;;;;;;;;;5096416;27;20798;-73
2022/05/24 08:50:56;;;;;;;1999.90;999.90;;;;;;;;;;5088714;27;20420;-73
2022/05/24 08:53:27;;;;;;;1999.90;999.90;;;;;;;;;;5098443;27;20403;-73
2022/05/24 08:55:54;;;;;;;1999.90;999.90;;;;;;;;;;5094378;27;20414;-72
2022/05/24 08:58:30;;;;;;;1999.90;999.90;;;;;;;;;;5113048;27;20478;-73
2022/05/24 09:00:58;;;;;;;1999.90;999.90;;;;;;;;;;5097444;27;20402;-73
2022/05/24 09:03:26;;;;;;;1999.90;999.90;;;;;;;;;;5097869;27;20387;-72
2022/05/24 09:05:58;;;;;;;1999.90;999.90;;;;;;;;;;5097402;27;20882;-73
2022/05/24 09:08:27;;;;;;;1999.90;999.90;;;;;;;;;;5099559;27;20382;-72
2022/05/24 09:10:58;;;;;;;1999.90;999.90;;;;;;;;;;5078985;27;20755;-73
2022/05/24 09:13:46;;;;;;;1999.90;999.90;;;;;;;;;;5112413;27;20470;-72
2022/05/24 09:16:15;;;;;;;1999.90;999.90;;;;;;;;;;5098397;27;20476;-72
2022/05/24 09:18:46;;;;;;;1999.90;999.90;;;;;;;;;;5098554;27;20473;-73
2022/05/24 09:21:20;;;;;;;1999.90;999.90;;;;;;;;;;5095806;27;20392;-72
2022/05/24 09:23:51;;;;;;;1999.90;999.90;;;;;;;;;;5098834;27;21163;-72
2022/05/24 09:26:22;;;;;;;1999.90;999.90;;;;;;;;;;5095711;27;20421;-72
2022/05/24 09:28:52;;;;;;;1999.90;999.90;;;;;;;;;;5098266;27;20432;-72
2022/05/24 09:31:25;;;;;;;1999.90;999.90;;;;;;;;;;5097313;27;20512;-73
2022/05/24 09:33:54;;;;;;;1999.90;999.90;;;;;;;;;;5097890;27;20390;-73
2022/05/24 09:36:29;;;;;;;1999.90;999.90;;;;;;;;;;5092949;27;22056;-72
2022/05/24 09:38:57;;;;;;;1999.90;999.90;;;;;;;;;;5098848;27;20517;-72
2022/05/24 09:41:25;;;;;;;1999.90;999.90;;;;;;;;;;5102178;27;20514;-73
2022/05/24 09:44:01;;;;;;;1999.90;999.90;;;;;;;;;;5102698;27;20414;-72
2022/05/24 09:46:29;;;;;;;1999.90;999.90;;;;;;;;;;5099286;27;20540;-74
2022/05/24 09:48:58;;;;;;;1999.90;999.90;;;;;;;;;;5100885;27;20384;-71
2022/05/24 09:51:28;;;;;;;1999.90;999.90;;;;;;;;;;5102000;27;20391;-73
2022/05/24 09:53:56;;;;;;;1999.90;999.90;;;;;;;;;;5102966;27;20383;-73
2022/05/24 09:56:25;;;;;;;1999.90;999.90;;;;;;;;;;5102298;27;21470;-72
2022/05/24 09:58:54;;;;;;;1999.90;999.90;;;;;;;;;;5103196;27;21094;-71
2022/05/24 10:01:35;;;;;;;1999.90;999.90;;;;;;;;;;5102309;27;20877;-73
2022/05/24 10:04:12;;;;;;;1999.90;999.90;;;;;;;;;;5084808;27;21347;-72
2022/05/24 10:06:41;;;;;;;1999.90;999.90;;;;;;;;;;5099399;27;20913;-73
2022/05/24 10:09:27;;;;;;;1999.90;999.90;;;;;;;;;;5102569;27;20416;-72
2022/05/24 10:11:56;;;;;;;1999.90;999.90;;;;;;;;;;5101168;27;20869;-72
2022/05/24 10:14:28;;;;;;;1999.90;999.90;;;;;;;;;;5094898;27;21087;-73
2022/05/24 10:17:03;;;;;;;1999.90;999.90;;;;;;;;;;5100740;27;21166;-73
2022/05/24 10:19:53;;;;;;;1999.90;999.90;;;;;;;;;;5102572;27;20801;-72
2022/05/24 10:22:26;;;;;;;1999.90;999.90;;;;;;;;;;5099931;27;20483;-72
2022/05/24 10:25:01;;;;;;;1999.90;999.90;;;;;;;;;;5102323;27;20375;-72
2022/05/24 10:27:33;;;;;;;1999.90;999.90;;;;;;;;;;5103121;27;20415;-72
2022/05/24 10:30:04;;;;;;;1999.90;999.90;;;;;;;;;;5102771;27;20445;-72
2022/05/24 10:38:28;;;;;;;1999.90;999.90;;;;;;;;;;5101908;27;20993;-73
2022/05/24 10:41:04;;;;;;;1999.90;999.90;;;;;;;;;;5097533;27;20886;-73
2022/05/24 10:43:46;;;;;;;1999.90;999.90;;;;;;;;;;5102135;27;20921;-73
2022/05/24 10:46:16;;;;;;;1999.90;999.90;;;;;;;;;;5099017;27;20402;-71
2022/05/24 10:48:48;;;;;;;1999.90;999.90;;;;;;;;;;5101067;27;20407;-71
2022/05/24 10:51:19;;;;;;;1999.90;999.90;;;;;;;;;;5100015;27;20391;-73
2022/05/24 10:53:49;;;;;;;1999.90;999.90;;;;;;;;;;5102668;27;20894;-72
2022/05/24 10:56:23;;;;;;;1999.90;999.90;;;;;;;;;;5096162;27;20497;-73
2022/05/24 10:58:51;;;;;;;1999.90;999.90;;;;;;;;;;5101494;27;20502;-75
2022/05/24 11:01:24;;;;;;;1999.90;999.90;;;;;;;;;;5100324;27;20504;-72
2022/05/24 11:03:55;;;;;;;1999.90;999.90;;;;;;;;;;5100097;27;20399;-72
2022/05/24 11:06:30;;;;;;;1999.90;999.90;;;;;;;;;;5101696;27;20433;-73
2022/05/24 11:09:02;;;;;;;1999.90;999.90;;;;;;;;;;5100665;27;20407;-72
2022/05/24 11:11:33;;;;;;;1999.90;999.90;;;;;;;;;;5096470;27;20419;-73
2022/05/24 11:14:04;;;;;;;1999.90;999.90;;;;;;;;;;5100050;27;20425;-72
2022/05/24 11:16:36;;;;;;;1999.90;999.90;;;;;;;;;;5098554;27;20470;-73
2022/05/24 11:19:09;;;;;;;1999.90;999.90;;;;;;;;;;5101024;27;20970;-73
2022/05/24 11:21:39;;;;;;;1999.90;999.90;;;;;;;;;;5099311;27;20441;-72
2022/05/24 11:24:08;;;;;;;1999.90;999.90;;;;;;;;;;5099027;27;20469;-70
2022/05/24 11:26:39;;;;;;;1999.90;999.90;;;;;;;;;;5098197;27;20845;-72
2022/05/24 11:29:14;;;;;;;1999.90;999.90;;;;;;;;;;5099239;27;20846;-72
2022/05/24 11:31:42;;;;;;;1999.90;999.90;;;;;;;;;;5098961;27;21900;-72
2022/05/24 11:34:13;;;;;;;1999.90;999.90;;;;;;;;;;5101716;27;20404;-74
2022/05/24 11:36:42;;;;;;;1999.90;999.90;;;;;;;;;;5098780;27;20395;-73
2022/05/24 11:39:11;;;;;;;1999.90;999.90;;;;;;;;;;5099052;27;20856;-73
2022/05/24 11:41:39;;;;;;;1999.90;999.90;;;;;;;;;;5100321;27;20844;-72
2022/05/24 11:44:13;;;;;;;1999.90;999.90;;;;;;;;;;5099126;27;20383;-73
2022/05/24 11:46:48;;;;;;;1999.90;999.90;;;;;;;;;;5099229;27;20230;-72
2022/05/24 11:49:35;;;;;;;1999.90;999.90;;;;;;;;;;5100528;27;20403;-72
2022/05/24 11:52:23;;;;;;;1999.90;999.90;;;;;;;;;;5099326;27;20383;-71
2022/05/24 11:54:56;;;;;;;1999.90;999.90;;;;;;;;;;5098208;27;20494;-72
2022/05/24 11:57:25;;;;;;;1999.90;999.90;;;;;;;;;;5097589;27;20399;-73
2022/05/24 11:59:53;;;;;;;1999.90;999.90;;;;;;;;;;5100180;27;20411;-73
2022/05/24 12:08:23;;;;;;;1999.90;999.90;;;;;;;;;;5099346;27;20428;-73
2022/05/24 12:10:53;;;;;;;1999.90;999.90;;;;;;;;;;5099417;27;20417;-72
2022/05/24 12:13:27;;;;;;;1999.90;999.90;;;;;;;;;;5081771;27;20553;-72
2022/05/24 12:15:55;;;;;;;1999.90;999.90;;;;;;;;;;5099602;27;20948;-73
2022/05/24 12:18:34;;;;;;;1999.90;999.90;;;;;;;;;;5099014;27;21977;-72
2022/05/24 12:21:02;;;;;;;1999.90;999.90;;;;;;;;;;5098167;27;20506;-71
2022/05/24 12:23:37;;;;;;;1999.90;999.90;;;;;;;;;;5097696;27;20383;-72
2022/05/24 12:26:07;;;;;;;1999.90;999.90;;;;;;;;;;5099313;27;22089;-71
2022/05/24 12:28:44;;;;;;;1999.90;999.90;;;;;;;;;;5083427;27;20384;-73
2022/05/24 12:31:16;;;;;;;1999.90;999.90;;;;;;;;;;5100005;27;20411;-71
2022/05/24 12:33:46;;;;;;;1999.90;999.90;;;;;;;;;;5088082;27;20372;-72
2022/05/24 12:36:26;;;;;;;1999.90;999.90;;;;;;;;;;5097856;27;20420;-72
2022/05/24 12:39:14;;;;;;;1999.90;999.90;;;;;;;;;;5097858;27;20387;-73
2022/05/24 12:41:43;;;;;;;1999.90;999.90;;;;;;;;;;5098456;27;20990;-72
2022/05/24 12:44:13;;;;;;;1999.90;999.90;;;;;;;;;;5098033;27;20384;-72
2022/05/24 12:46:49;;;;;;;1999.90;999.90;;;;;;;;;;5098303;27;20392;-72
2022/05/24 12:49:19;;;;;;;1999.90;999.90;;;;;;;;;;5098292;27;20404;-73
2022/05/24 12:51:48;;;;;;;1999.90;999.90;;;;;;;;;;5099849;27;33608;-73
2022/05/24 12:54:19;;;;;;;1999.90;999.90;;;;;;;;;;5096038;27;20383;-72
2022/05/24 12:56:58;;;;;;;1999.90;999.90;;;;;;;;;;5084856;27;20415;-72
2022/05/24 12:59:34;;;;;;;1999.90;999.90;;;;;;;;;;5094974;27;20399;-73
2022/05/24 13:02:15;;;;;;;1999.90;999.90;;;;;;;;;;5097300;27;20428;-72
2022/05/24 13:04:43;;;;;;;1999.90;999.90;;;;;;;;;;5114762;27;20379;-72
2022/05/24 13:07:31;;;;;;;1999.90;999.90;;;;;;;;;;5080151;27;20396;-74
2022/05/24 13:09:59;;;;;;;1999.90;999.90;;;;;;;;;;5098471;27;20395;-71
2022/05/24 13:12:28;;;;;;;1999.90;999.90;;;;;;;;;;5089612;27;20557;-72
2022/05/24 13:14:57;;;;;;;1999.90;999.90;;;;;;;;;;5099006;27;20379;-72
2022/05/24 13:17:25;;;;;;;1999.90;999.90;;;;;;;;;;5094649;27;20545;-71
2022/05/24 13:19:55;;;;;;;1999.90;999.90;;;;;;;;;;5097532;27;20386;-72
2022/05/24 13:22:24;;;;;;;1999.90;999.90;;;;;;;;;;5098818;27;20909;-73
2022/05/24 13:24:54;;;;;;;1999.90;999.90;;;;;;;;;;5094887;27;20528;-72
2022/05/24 13:27:22;;;;;;;1999.90;999.90;;;;;;;;;;5097855;27;20473;-73
2022/05/24 13:35:32;;;;;;;1999.90;999.90;;;;;;;;;;5098939;27;20226;-71
2022/05/24 13:38:01;;;;;;;1999.90;999.90;;;;;;;;;;5098709;27;20399;-72
2022/05/24 13:40:35;;;;;;;1999.90;999.90;;;;;;;;;;5096623;27;20474;-73
2022/05/24 13:43:03;;;;;;;1999.90;999.90;;;;;;;;;;5098068;27;20896;-74
2022/05/24 13:45:34;;;;;;;1999.90;999.90;;;;;;;;;;5098593;27;20901;-72
2022/05/24 13:48:02;;;;;;;1999.90;999.90;;;;;;;;;;5096303;27;20408;-71
2022/05/24 13:50:36;;;;;;;1999.90;999.90;;;;;;;;;;5097060;27;20457;-73
2022/05/24 13:53:04;;;;;;;1999.90;999.90;;;;;;;;;;5090951;27;20430;-71
2022/05/24 13:55:33;;;;;;;1999.90;999.90;;;;;;;;;;5096290;27;20425;-71
2022/05/24 13:58:04;;;;;;;1999.90;999.90;;;;;;;;;;5098782;27;21393;-73
2022/05/24 14:00:38;;;;;;;1999.90;999.90;;;;;;;;;;5098135;27;20411;-73
2022/05/24 14:03:12;;;;;;;1999.90;999.90;;;;;;;;;;5095384;27;20821;-72
2022/05/24 14:05:40;;;;;;;1999.90;999.90;;;;;;;;;;5096868;27;20993;-72
2022/05/24 14:08:08;;;;;;;1999.90;999.90;;;;;;;;;;5095235;27;20414;-73
2022/05/24 14:10:36;;;;;;;1999.90;999.90;;;;;;;;;;5097383;27;20399;-71
2022/05/24 14:13:07;;;;;;;1999.90;999.90;;;;;;;;;;5097700;27;20720;-73
2022/05/24 14:15:38;;;;;;;1999.90;999.90;;;;;;;;;;5098293;27;20879;-73
2022/05/24 14:18:05;;;;;;;1999.90;999.90;;;;;;;;;;5096973;27;20907;-73
2022/05/24 14:20:36;;;;;;;1999.90;999.90;;;;;;;;;;5096962;27;20415;-72
2022/05/24 14:23:04;;;;;;;1999.90;999.90;;;;;;;;;;5095453;27;20435;-72
2022/05/24 14:25:31;;;;;;;1999.90;999.90;;;;;;;;;;5100215;27;20396;-72
2022/05/24 14:27:59;;;;;;;1999.90;999.90;;;;;;;;;;5100348;27;21153;-73
2022/05/24 14:30:28;;;;;;;1999.90;999.90;;;;;;;;;;5100935;27;20437;-73
2022/05/24 14:33:00;;;;;;;1999.90;999.90;;;;;;;;;;5102483;27;20882;-72
2022/05/24 14:35:28;;;;;;;1999.90;999.90;;;;;;;;;;5102328;27;20480;-73
2022/05/24 14:37:56;;;;;;;1999.90;999.90;;;;;;;;;;5102906;27;20488;-72
2022/05/24 14:40:25;;;;;;;1999.90;999.90;;;;;;;;;;5114095;27;20439;-73